sensor_id;sensor_type;location;lat;lon;timestamp;temperature;humidity
59975;DHT22;62136;-35.664;-63.766;2023-07-31T00:00:40;22.60;41.50
59975;DHT22;62136;-35.664;-63.766;2023-07-31T00:03:07;22.50;41.50
59975;DHT22;62136;-35.664;-63.766;2023-07-31T00:05:34;22.40;41.80
59975;DHT22;62136;-35.664;-63.766;2023-07-31T00:08:01;22.20;41.90
59975;DHT22;62136;-35.664;-63.766;2023-07-31T00:10:28;22.20;42.20
59975;DHT22;62136;-35.664;-63.766;2023-07-31T00:12:55;22.30;42.10
59975;DHT22;62136;-35.664;-63.766;2023-07-31T00:15:22;22.60;41.60
59975;DHT22;62136;-35.664;-63.766;2023-07-31T00:17:49;23.10;41.00
59975;DHT22;62136;-35.664;-63.766;2023-07-31T00:20:16;23.60;40.40
59975;DHT22;62136;-35.664;-63.766;2023-07-31T00:22:43;23.60;40.10
59975;DHT22;62136;-35.664;-63.766;2023-07-31T00:25:10;23.60;40.10
59975;DHT22;62136;-35.664;-63.766;2023-07-31T00:27:37;23.40;40.10
59975;DHT22;62136;-35.664;-63.766;2023-07-31T00:30:04;23.30;40.30
59975;DHT22;62136;-35.664;-63.766;2023-07-31T00:32:31;23.20;40.50
59975;DHT22;62136;-35.664;-63.766;2023-07-31T00:34:58;23.10;40.80
59975;DHT22;62136;-35.664;-63.766;2023-07-31T00:37:25;22.90;40.90
59975;DHT22;62136;-35.664;-63.766;2023-07-31T00:39:52;22.80;41.20
59975;DHT22;62136;-35.664;-63.766;2023-07-31T00:42:19;22.60;41.40
59975;DHT22;62136;-35.664;-63.766;2023-07-31T00:44:46;22.50;41.60
59975;DHT22;62136;-35.664;-63.766;2023-07-31T00:47:13;22.40;41.90
59975;DHT22;62136;-35.664;-63.766;2023-07-31T00:49:40;22.20;41.90
59975;DHT22;62136;-35.664;-63.766;2023-07-31T00:52:09;22.10;42.20
59975;DHT22;62136;-35.664;-63.766;2023-07-31T00:54:37;22.20;42.40
59975;DHT22;62136;-35.664;-63.766;2023-07-31T00:57:04;22.40;42.00
59975;DHT22;62136;-35.664;-63.766;2023-07-31T00:59:31;22.80;41.60
59975;DHT22;62136;-35.664;-63.766;2023-07-31T01:01:58;23.30;40.90
59975;DHT22;62136;-35.664;-63.766;2023-07-31T01:04:25;23.40;40.40
59975;DHT22;62136;-35.664;-63.766;2023-07-31T01:07:03;23.40;40.40
59975;DHT22;62136;-35.664;-63.766;2023-07-31T01:12:09;23.20;40.70
59975;DHT22;62136;-35.664;-63.766;2023-07-31T01:14:39;23.10;40.90
59975;DHT22;62136;-35.664;-63.766;2023-07-31T01:17:06;22.90;41.10
59975;DHT22;62136;-35.664;-63.766;2023-07-31T01:19:33;22.80;41.30
59975;DHT22;62136;-35.664;-63.766;2023-07-31T01:22:10;22.60;41.50
59975;DHT22;62136;-35.664;-63.766;2023-07-31T01:27:34;22.30;42.00
59975;DHT22;62136;-35.664;-63.766;2023-07-31T01:30:08;22.20;42.30
59975;DHT22;62136;-35.664;-63.766;2023-07-31T01:32:40;22.10;42.30
59975;DHT22;62136;-35.664;-63.766;2023-07-31T01:35:11;22.10;42.50
59975;DHT22;62136;-35.664;-63.766;2023-07-31T01:37:38;22.30;42.20
59975;DHT22;62136;-35.664;-63.766;2023-07-31T01:40:06;22.80;41.70
59975;DHT22;62136;-35.664;-63.766;2023-07-31T01:42:33;23.20;41.00
59975;DHT22;62136;-35.664;-63.766;2023-07-31T01:45:00;23.40;40.60
59975;DHT22;62136;-35.664;-63.766;2023-07-31T01:47:26;23.40;40.50
59975;DHT22;62136;-35.664;-63.766;2023-07-31T01:49:53;23.30;40.50
59975;DHT22;62136;-35.664;-63.766;2023-07-31T01:52:20;23.20;40.70
59975;DHT22;62136;-35.664;-63.766;2023-07-31T01:54:47;23.10;40.90
59975;DHT22;62136;-35.664;-63.766;2023-07-31T01:57:14;22.90;41.10
59975;DHT22;62136;-35.664;-63.766;2023-07-31T01:59:41;22.80;41.40
59975;DHT22;62136;-35.664;-63.766;2023-07-31T02:02:08;22.60;41.60
59975;DHT22;62136;-35.664;-63.766;2023-07-31T02:04:35;22.40;41.90
59975;DHT22;62136;-35.664;-63.766;2023-07-31T02:07:02;22.30;42.10
59975;DHT22;62136;-35.664;-63.766;2023-07-31T02:09:29;22.10;42.30
59975;DHT22;62136;-35.664;-63.766;2023-07-31T02:11:56;22.00;42.60
59975;DHT22;62136;-35.664;-63.766;2023-07-31T02:14:23;22.00;42.70
59975;DHT22;62136;-35.664;-63.766;2023-07-31T02:16:50;22.30;42.40
59975;DHT22;62136;-35.664;-63.766;2023-07-31T02:19:17;22.60;41.90
59975;DHT22;62136;-35.664;-63.766;2023-07-31T02:21:44;23.00;41.40
59975;DHT22;62136;-35.664;-63.766;2023-07-31T02:24:12;23.40;40.70
59975;DHT22;62136;-35.664;-63.766;2023-07-31T02:26:39;23.40;40.60
59975;DHT22;62136;-35.664;-63.766;2023-07-31T02:29:06;23.30;40.60
59975;DHT22;62136;-35.664;-63.766;2023-07-31T02:31:33;23.20;40.70
59975;DHT22;62136;-35.664;-63.766;2023-07-31T02:34:00;23.10;40.90
59975;DHT22;62136;-35.664;-63.766;2023-07-31T02:36:27;22.90;41.20
59975;DHT22;62136;-35.664;-63.766;2023-07-31T02:38:54;22.70;41.30
59975;DHT22;62136;-35.664;-63.766;2023-07-31T02:41:21;22.60;41.60
59975;DHT22;62136;-35.664;-63.766;2023-07-31T02:43:48;22.40;42.30
59975;DHT22;62136;-35.664;-63.766;2023-07-31T02:46:15;22.30;42.10
59975;DHT22;62136;-35.664;-63.766;2023-07-31T02:48:42;22.10;42.50
59975;DHT22;62136;-35.664;-63.766;2023-07-31T02:51:09;22.00;42.70
59975;DHT22;62136;-35.664;-63.766;2023-07-31T02:53:36;22.00;42.70
59975;DHT22;62136;-35.664;-63.766;2023-07-31T02:56:03;22.20;42.50
59975;DHT22;62136;-35.664;-63.766;2023-07-31T02:58:30;22.60;42.00
59975;DHT22;62136;-35.664;-63.766;2023-07-31T03:00:58;23.00;41.40
59975;DHT22;62136;-35.664;-63.766;2023-07-31T03:03:25;23.30;40.70
59975;DHT22;62136;-35.664;-63.766;2023-07-31T03:05:52;23.30;40.60
59975;DHT22;62136;-35.664;-63.766;2023-07-31T03:08:20;23.30;40.70
59975;DHT22;62136;-35.664;-63.766;2023-07-31T03:10:47;23.10;40.80
59975;DHT22;62136;-35.664;-63.766;2023-07-31T03:13:14;23.00;41.00
59975;DHT22;62136;-35.664;-63.766;2023-07-31T03:15:44;22.80;41.20
59975;DHT22;62136;-35.664;-63.766;2023-07-31T03:18:11;22.70;41.50
59975;DHT22;62136;-35.664;-63.766;2023-07-31T03:20:41;22.50;41.80
59975;DHT22;62136;-35.664;-63.766;2023-07-31T03:23:08;22.40;42.00
59975;DHT22;62136;-35.664;-63.766;2023-07-31T03:25:35;22.20;42.20
59975;DHT22;62136;-35.664;-63.766;2023-07-31T03:28:02;22.00;42.50
59975;DHT22;62136;-35.664;-63.766;2023-07-31T03:30:29;21.90;42.70
59975;DHT22;62136;-35.664;-63.766;2023-07-31T03:32:56;22.00;42.70
59975;DHT22;62136;-35.664;-63.766;2023-07-31T03:35:23;22.20;42.30
59975;DHT22;62136;-35.664;-63.766;2023-07-31T03:37:50;22.60;41.90
59975;DHT22;62136;-35.664;-63.766;2023-07-31T03:40:17;23.00;41.20
59975;DHT22;62136;-35.664;-63.766;2023-07-31T03:42:43;23.20;40.70
59975;DHT22;62136;-35.664;-63.766;2023-07-31T03:45:11;23.20;40.70
59975;DHT22;62136;-35.664;-63.766;2023-07-31T03:47:37;23.10;40.80
59975;DHT22;62136;-35.664;-63.766;2023-07-31T03:50:05;22.90;41.00
59975;DHT22;62136;-35.664;-63.766;2023-07-31T03:52:32;22.80;41.20
59975;DHT22;62136;-35.664;-63.766;2023-07-31T03:54:59;22.60;41.40
59975;DHT22;62136;-35.664;-63.766;2023-07-31T03:57:26;22.50;41.70
59975;DHT22;62136;-35.664;-63.766;2023-07-31T03:59:53;22.30;41.90
59975;DHT22;62136;-35.664;-63.766;2023-07-31T04:02:20;22.20;42.20
59975;DHT22;62136;-35.664;-63.766;2023-07-31T04:04:47;22.00;42.40
59975;DHT22;62136;-35.664;-63.766;2023-07-31T04:07:14;21.80;42.60
59975;DHT22;62136;-35.664;-63.766;2023-07-31T04:09:41;21.90;42.70
59975;DHT22;62136;-35.664;-63.766;2023-07-31T04:12:08;22.20;42.30
59975;DHT22;62136;-35.664;-63.766;2023-07-31T04:14:35;22.50;41.80
59975;DHT22;62136;-35.664;-63.766;2023-07-31T04:17:01;22.90;41.20
59975;DHT22;62136;-35.664;-63.766;2023-07-31T04:19:28;23.20;40.60
59975;DHT22;62136;-35.664;-63.766;2023-07-31T04:21:56;23.20;40.50
59975;DHT22;62136;-35.664;-63.766;2023-07-31T04:24:23;23.10;40.50
59975;DHT22;62136;-35.664;-63.766;2023-07-31T04:26:53;23.00;40.80
59975;DHT22;62136;-35.664;-63.766;2023-07-31T04:29:20;22.80;40.90
59975;DHT22;62136;-35.664;-63.766;2023-07-31T04:31:48;22.70;41.30
59975;DHT22;62136;-35.664;-63.766;2023-07-31T04:34:15;22.50;41.50
59975;DHT22;62136;-35.664;-63.766;2023-07-31T04:36:42;22.30;41.80
59975;DHT22;62136;-35.664;-63.766;2023-07-31T04:39:09;22.10;42.00
59975;DHT22;62136;-35.664;-63.766;2023-07-31T04:41:36;22.00;42.30
59975;DHT22;62136;-35.664;-63.766;2023-07-31T04:44:03;21.80;42.50
59975;DHT22;62136;-35.664;-63.766;2023-07-31T04:46:30;21.80;42.70
59975;DHT22;62136;-35.664;-63.766;2023-07-31T04:48:57;22.10;42.50
59975;DHT22;62136;-35.664;-63.766;2023-07-31T04:51:24;22.30;41.90
59975;DHT22;62136;-35.664;-63.766;2023-07-31T04:53:51;22.70;41.30
59975;DHT22;62136;-35.664;-63.766;2023-07-31T04:56:18;23.10;40.60
59975;DHT22;62136;-35.664;-63.766;2023-07-31T04:58:45;23.10;40.40
59975;DHT22;62136;-35.664;-63.766;2023-07-31T05:01:12;23.10;40.40
59975;DHT22;62136;-35.664;-63.766;2023-07-31T05:03:39;23.00;40.60
59975;DHT22;62136;-35.664;-63.766;2023-07-31T05:06:06;22.80;40.80
59975;DHT22;62136;-35.664;-63.766;2023-07-31T05:08:33;22.70;41.10
59975;DHT22;62136;-35.664;-63.766;2023-07-31T05:11:00;22.50;41.40
59975;DHT22;62136;-35.664;-63.766;2023-07-31T05:13:26;22.30;41.70
59975;DHT22;62136;-35.664;-63.766;2023-07-31T05:15:53;22.10;41.90
59975;DHT22;62136;-35.664;-63.766;2023-07-31T05:18:20;21.90;42.20
59975;DHT22;62136;-35.664;-63.766;2023-07-31T05:20:47;21.80;42.40
59975;DHT22;62136;-35.664;-63.766;2023-07-31T05:23:14;21.80;42.50
59975;DHT22;62136;-35.664;-63.766;2023-07-31T05:25:41;21.90;42.30
59975;DHT22;62136;-35.664;-63.766;2023-07-31T05:28:08;22.30;41.70
59975;DHT22;62136;-35.664;-63.766;2023-07-31T05:30:35;22.70;41.60
59975;DHT22;62136;-35.664;-63.766;2023-07-31T05:33:02;23.00;40.50
59975;DHT22;62136;-35.664;-63.766;2023-07-31T05:35:29;23.10;40.20
59975;DHT22;62136;-35.664;-63.766;2023-07-31T05:37:56;23.10;40.30
59975;DHT22;62136;-35.664;-63.766;2023-07-31T05:40:23;22.90;40.40
59975;DHT22;62136;-35.664;-63.766;2023-07-31T05:42:50;22.80;40.70
59975;DHT22;62136;-35.664;-63.766;2023-07-31T05:45:16;22.60;40.90
59975;DHT22;62136;-35.664;-63.766;2023-07-31T05:47:43;22.50;41.20
59975;DHT22;62136;-35.664;-63.766;2023-07-31T05:50:10;22.20;41.50
59975;DHT22;62136;-35.664;-63.766;2023-07-31T05:52:37;22.10;41.80
59975;DHT22;62136;-35.664;-63.766;2023-07-31T05:55:04;21.90;42.00
59975;DHT22;62136;-35.664;-63.766;2023-07-31T05:57:31;21.80;42.30
59975;DHT22;62136;-35.664;-63.766;2023-07-31T05:59:58;21.80;42.40
59975;DHT22;62136;-35.664;-63.766;2023-07-31T06:02:25;22.00;42.10
59975;DHT22;62136;-35.664;-63.766;2023-07-31T06:04:52;22.30;41.70
59975;DHT22;62136;-35.664;-63.766;2023-07-31T06:07:19;22.70;41.00
59975;DHT22;62136;-35.664;-63.766;2023-07-31T06:09:46;23.10;40.20
59975;DHT22;62136;-35.664;-63.766;2023-07-31T06:12:13;23.10;40.10
59975;DHT22;62136;-35.664;-63.766;2023-07-31T06:14:44;23.00;40.20
59975;DHT22;62136;-35.664;-63.766;2023-07-31T06:17:11;22.90;40.40
59975;DHT22;62136;-35.664;-63.766;2023-07-31T06:19:37;22.70;40.60
59975;DHT22;62136;-35.664;-63.766;2023-07-31T06:22:05;22.50;40.90
59975;DHT22;62136;-35.664;-63.766;2023-07-31T06:24:32;22.30;41.10
59975;DHT22;62136;-35.664;-63.766;2023-07-31T06:26:59;22.20;41.50
59975;DHT22;62136;-35.664;-63.766;2023-07-31T06:29:26;21.90;41.70
59975;DHT22;62136;-35.664;-63.766;2023-07-31T06:31:53;21.80;42.00
59975;DHT22;62136;-35.664;-63.766;2023-07-31T06:34:19;21.70;42.30
59975;DHT22;62136;-35.664;-63.766;2023-07-31T06:36:46;21.70;42.30
59975;DHT22;62136;-35.664;-63.766;2023-07-31T06:39:13;22.00;41.90
59975;DHT22;62136;-35.664;-63.766;2023-07-31T06:41:41;22.30;41.30
59975;DHT22;62136;-35.664;-63.766;2023-07-31T06:44:09;22.80;40.70
59975;DHT22;62136;-35.664;-63.766;2023-07-31T06:46:36;23.00;40.10
59975;DHT22;62136;-35.664;-63.766;2023-07-31T06:49:03;23.00;40.00
59975;DHT22;62136;-35.664;-63.766;2023-07-31T06:53:59;22.80;40.40
59975;DHT22;62136;-35.664;-63.766;2023-07-31T06:56:27;22.60;40.60
59975;DHT22;62136;-35.664;-63.766;2023-07-31T06:58:54;22.40;40.90
59975;DHT22;62136;-35.664;-63.766;2023-07-31T07:01:21;22.30;41.20
59975;DHT22;62136;-35.664;-63.766;2023-07-31T07:03:48;22.10;41.50
59975;DHT22;62136;-35.664;-63.766;2023-07-31T07:06:17;21.90;41.70
59975;DHT22;62136;-35.664;-63.766;2023-07-31T07:08:44;21.70;42.00
59975;DHT22;62136;-35.664;-63.766;2023-07-31T07:11:11;21.60;42.30
59975;DHT22;62136;-35.664;-63.766;2023-07-31T07:13:38;21.70;42.40
59975;DHT22;62136;-35.664;-63.766;2023-07-31T07:16:05;22.00;42.00
59975;DHT22;62136;-35.664;-63.766;2023-07-31T07:18:32;22.40;41.40
59975;DHT22;62136;-35.664;-63.766;2023-07-31T07:20:59;22.80;40.70
59975;DHT22;62136;-35.664;-63.766;2023-07-31T07:23:28;23.00;40.20
59975;DHT22;62136;-35.664;-63.766;2023-07-31T07:25:55;23.00;40.10
59975;DHT22;62136;-35.664;-63.766;2023-07-31T07:28:22;22.90;40.20
59975;DHT22;62136;-35.664;-63.766;2023-07-31T07:30:53;22.80;40.40
59975;DHT22;62136;-35.664;-63.766;2023-07-31T07:33:20;22.60;40.60
59975;DHT22;62136;-35.664;-63.766;2023-07-31T07:35:47;22.40;40.90
59975;DHT22;62136;-35.664;-63.766;2023-07-31T07:38:18;22.20;41.20
59975;DHT22;62136;-35.664;-63.766;2023-07-31T07:40:45;22.00;41.50
59975;DHT22;62136;-35.664;-63.766;2023-07-31T07:43:16;21.80;42.20
59975;DHT22;62136;-35.664;-63.766;2023-07-31T07:45:43;21.70;42.10
59975;DHT22;62136;-35.664;-63.766;2023-07-31T07:48:10;21.60;42.30
59975;DHT22;62136;-35.664;-63.766;2023-07-31T07:50:39;21.70;42.30
59975;DHT22;62136;-35.664;-63.766;2023-07-31T07:53:06;22.00;42.00
59975;DHT22;62136;-35.664;-63.766;2023-07-31T07:55:33;22.30;41.40
59975;DHT22;62136;-35.664;-63.766;2023-07-31T07:57:59;22.80;40.70
59975;DHT22;62136;-35.664;-63.766;2023-07-31T08:00:26;23.00;40.20
59975;DHT22;62136;-35.664;-63.766;2023-07-31T08:02:53;23.00;40.20
59975;DHT22;62136;-35.664;-63.766;2023-07-31T08:05:23;22.90;40.30
59975;DHT22;62136;-35.664;-63.766;2023-07-31T08:07:56;22.70;40.40
59975;DHT22;62136;-35.664;-63.766;2023-07-31T08:10:23;22.60;40.70
59975;DHT22;62136;-35.664;-63.766;2023-07-31T08:12:50;22.40;41.00
59975;DHT22;62136;-35.664;-63.766;2023-07-31T08:15:17;22.20;41.30
59975;DHT22;62136;-35.664;-63.766;2023-07-31T08:17:44;22.00;41.60
59975;DHT22;62136;-35.664;-63.766;2023-07-31T08:20:11;21.80;41.90
59975;DHT22;62136;-35.664;-63.766;2023-07-31T08:22:38;21.60;42.20
59975;DHT22;62136;-35.664;-63.766;2023-07-31T08:25:06;21.50;42.40
59975;DHT22;62136;-35.664;-63.766;2023-07-31T08:27:34;21.70;42.40
59975;DHT22;62136;-35.664;-63.766;2023-07-31T08:30:01;22.00;42.00
59975;DHT22;62136;-35.664;-63.766;2023-07-31T08:32:28;22.40;41.30
59975;DHT22;62136;-35.664;-63.766;2023-07-31T08:34:54;22.80;40.60
59975;DHT22;62136;-35.664;-63.766;2023-07-31T08:37:21;23.00;40.20
59975;DHT22;62136;-35.664;-63.766;2023-07-31T08:39:48;22.90;40.20
59975;DHT22;62136;-35.664;-63.766;2023-07-31T08:42:15;22.80;40.30
59975;DHT22;62136;-35.664;-63.766;2023-07-31T08:44:43;22.60;40.60
59975;DHT22;62136;-35.664;-63.766;2023-07-31T08:47:11;22.40;40.80
59975;DHT22;62136;-35.664;-63.766;2023-07-31T08:49:39;22.20;41.10
59975;DHT22;62136;-35.664;-63.766;2023-07-31T08:52:07;22.10;41.50
59975;DHT22;62136;-35.664;-63.766;2023-07-31T08:54:34;21.90;41.80
59975;DHT22;62136;-35.664;-63.766;2023-07-31T08:57:01;21.70;42.10
59975;DHT22;62136;-35.664;-63.766;2023-07-31T08:59:30;21.50;42.30
59975;DHT22;62136;-35.664;-63.766;2023-07-31T09:02:05;21.60;42.50
59975;DHT22;62136;-35.664;-63.766;2023-07-31T09:04:33;21.80;42.10
59975;DHT22;62136;-35.664;-63.766;2023-07-31T09:07:02;22.10;41.60
59975;DHT22;62136;-35.664;-63.766;2023-07-31T09:09:33;22.50;41.00
59975;DHT22;62136;-35.664;-63.766;2023-07-31T09:12:01;22.90;40.30
59975;DHT22;62136;-35.664;-63.766;2023-07-31T09:14:28;22.90;40.20
59975;DHT22;62136;-35.664;-63.766;2023-07-31T09:16:56;22.80;40.30
59975;DHT22;62136;-35.664;-63.766;2023-07-31T09:19:34;22.60;40.50
59975;DHT22;62136;-35.664;-63.766;2023-07-31T09:22:04;22.40;40.80
59975;DHT22;62136;-35.664;-63.766;2023-07-31T09:24:32;22.20;41.10
59975;DHT22;62136;-35.664;-63.766;2023-07-31T09:27:01;22.00;41.40
59975;DHT22;62136;-35.664;-63.766;2023-07-31T09:29:29;21.80;41.70
59975;DHT22;62136;-35.664;-63.766;2023-07-31T09:31:56;21.70;42.00
59975;DHT22;62136;-35.664;-63.766;2023-07-31T09:34:44;21.50;42.30
59975;DHT22;62136;-35.664;-63.766;2023-07-31T09:37:11;21.50;42.40
59975;DHT22;62136;-35.664;-63.766;2023-07-31T09:39:49;21.70;42.00
59975;DHT22;62136;-35.664;-63.766;2023-07-31T09:42:27;22.20;41.40
59975;DHT22;62136;-35.664;-63.766;2023-07-31T09:45:07;22.60;40.70
59975;DHT22;62136;-35.664;-63.766;2023-07-31T09:47:37;22.90;40.10
59975;DHT22;62136;-35.664;-63.766;2023-07-31T09:50:08;22.80;40.00
59975;DHT22;62136;-35.664;-63.766;2023-07-31T09:55:03;22.60;40.40
59975;DHT22;62136;-35.664;-63.766;2023-07-31T09:57:31;22.40;40.70
59975;DHT22;62136;-35.664;-63.766;2023-07-31T09:59:59;22.20;41.00
59975;DHT22;62136;-35.664;-63.766;2023-07-31T10:02:27;22.00;41.30
59975;DHT22;62136;-35.664;-63.766;2023-07-31T10:04:57;21.80;41.70
59975;DHT22;62136;-35.664;-63.766;2023-07-31T10:07:30;21.60;41.90
59975;DHT22;62136;-35.664;-63.766;2023-07-31T10:10:00;21.50;42.20
59975;DHT22;62136;-35.664;-63.766;2023-07-31T10:12:28;21.50;42.30
59975;DHT22;62136;-35.664;-63.766;2023-07-31T10:14:56;21.80;42.30
59975;DHT22;62136;-35.664;-63.766;2023-07-31T10:17:24;22.20;41.30
59975;DHT22;62136;-35.664;-63.766;2023-07-31T10:19:51;22.60;40.70
59975;DHT22;62136;-35.664;-63.766;2023-07-31T10:22:22;22.80;40.10
59975;DHT22;62136;-35.664;-63.766;2023-07-31T10:24:51;22.80;39.90
59975;DHT22;62136;-35.664;-63.766;2023-07-31T10:27:19;22.80;40.10
59975;DHT22;62136;-35.664;-63.766;2023-07-31T10:29:46;22.60;40.20
59975;DHT22;62136;-35.664;-63.766;2023-07-31T10:32:15;22.50;40.50
59975;DHT22;62136;-35.664;-63.766;2023-07-31T10:34:43;22.30;40.80
59975;DHT22;62136;-35.664;-63.766;2023-07-31T10:37:40;22.00;41.10
59975;DHT22;62136;-35.664;-63.766;2023-07-31T10:40:19;21.80;41.50
59975;DHT22;62136;-35.664;-63.766;2023-07-31T10:42:52;21.60;41.80
59975;DHT22;62136;-35.664;-63.766;2023-07-31T10:45:36;21.50;42.10
59975;DHT22;62136;-35.664;-63.766;2023-07-31T10:48:12;21.50;42.20
59975;DHT22;62136;-35.664;-63.766;2023-07-31T10:50:49;21.80;41.80
59975;DHT22;62136;-35.664;-63.766;2023-07-31T10:53:30;22.20;41.20
59975;DHT22;62136;-35.664;-63.766;2023-07-31T10:56:04;22.70;40.40
59975;DHT22;62136;-35.664;-63.766;2023-07-31T10:58:32;22.90;39.80
59975;DHT22;62136;-35.664;-63.766;2023-07-31T11:01:03;22.80;39.80
59975;DHT22;62136;-35.664;-63.766;2023-07-31T11:03:50;22.70;40.00
59975;DHT22;62136;-35.664;-63.766;2023-07-31T11:06:21;22.50;40.30
59975;DHT22;62136;-35.664;-63.766;2023-07-31T11:08:52;22.30;40.70
59975;DHT22;62136;-35.664;-63.766;2023-07-31T11:13:48;21.90;41.30
59975;DHT22;62136;-35.664;-63.766;2023-07-31T11:16:24;21.70;41.70
59975;DHT22;62136;-35.664;-63.766;2023-07-31T11:18:52;21.40;41.90
59975;DHT22;62136;-35.664;-63.766;2023-07-31T11:21:38;21.40;41.90
59975;DHT22;62136;-35.664;-63.766;2023-07-31T11:24:05;21.60;41.60
59975;DHT22;62136;-35.664;-63.766;2023-07-31T11:26:32;22.00;41.20
59975;DHT22;62136;-35.664;-63.766;2023-07-31T11:28:59;22.40;40.50
59975;DHT22;62136;-35.664;-63.766;2023-07-31T11:31:46;22.70;39.90
59975;DHT22;62136;-35.664;-63.766;2023-07-31T11:34:14;22.80;39.70
59975;DHT22;62136;-35.664;-63.766;2023-07-31T11:36:42;22.70;39.90
59975;DHT22;62136;-35.664;-63.766;2023-07-31T11:39:18;22.50;40.10
59975;DHT22;62136;-35.664;-63.766;2023-07-31T11:41:45;22.20;40.40
59975;DHT22;62136;-35.664;-63.766;2023-07-31T11:44:12;22.00;40.80
59975;DHT22;62136;-35.664;-63.766;2023-07-31T11:46:39;21.80;41.10
59975;DHT22;62136;-35.664;-63.766;2023-07-31T11:49:06;21.60;41.40
59975;DHT22;62136;-35.664;-63.766;2023-07-31T11:51:33;21.40;41.80
59975;DHT22;62136;-35.664;-63.766;2023-07-31T11:54:01;21.40;42.10
59975;DHT22;62136;-35.664;-63.766;2023-07-31T11:56:29;21.60;42.10
59975;DHT22;62136;-35.664;-63.766;2023-07-31T11:59:00;21.90;41.60
59975;DHT22;62136;-35.664;-63.766;2023-07-31T12:01:29;22.20;41.00
59975;DHT22;62136;-35.664;-63.766;2023-07-31T12:04:01;22.50;40.50
59975;DHT22;62136;-35.664;-63.766;2023-07-31T12:06:37;22.70;40.40
59975;DHT22;62136;-35.664;-63.766;2023-07-31T12:09:06;22.70;39.90
59975;DHT22;62136;-35.664;-63.766;2023-07-31T12:14:18;22.40;40.40
59975;DHT22;62136;-35.664;-63.766;2023-07-31T12:16:45;22.20;40.70
59975;DHT22;62136;-35.664;-63.766;2023-07-31T12:19:12;21.90;41.10
59975;DHT22;62136;-35.664;-63.766;2023-07-31T12:21:39;21.80;41.70
59975;DHT22;62136;-35.664;-63.766;2023-07-31T12:24:07;21.60;44.30
59975;DHT22;62136;-35.664;-63.766;2023-07-31T12:26:37;21.40;43.20
59975;DHT22;62136;-35.664;-63.766;2023-07-31T12:29:07;21.40;42.80
59975;DHT22;62136;-35.664;-63.766;2023-07-31T12:31:34;21.60;42.50
59975;DHT22;62136;-35.664;-63.766;2023-07-31T12:34:02;21.90;42.00
59975;DHT22;62136;-35.664;-63.766;2023-07-31T12:36:31;22.30;41.30
59975;DHT22;62136;-35.664;-63.766;2023-07-31T12:39:01;22.60;40.60
59975;DHT22;62136;-35.664;-63.766;2023-07-31T12:41:30;22.60;40.50
59975;DHT22;62136;-35.664;-63.766;2023-07-31T12:43:57;22.50;40.60
59975;DHT22;62136;-35.664;-63.766;2023-07-31T12:46:25;22.40;40.80
59975;DHT22;62136;-35.664;-63.766;2023-07-31T12:48:52;22.10;41.10
59975;DHT22;62136;-35.664;-63.766;2023-07-31T12:51:19;22.00;41.40
59975;DHT22;62136;-35.664;-63.766;2023-07-31T12:53:47;21.80;41.70
59975;DHT22;62136;-35.664;-63.766;2023-07-31T12:56:14;21.60;42.50
59975;DHT22;62136;-35.664;-63.766;2023-07-31T12:58:41;21.50;44.50
59975;DHT22;62136;-35.664;-63.766;2023-07-31T13:01:08;21.30;43.70
59975;DHT22;62136;-35.664;-63.766;2023-07-31T13:03:35;21.40;43.30
59975;DHT22;62136;-35.664;-63.766;2023-07-31T13:06:02;21.70;43.00
59975;DHT22;62136;-35.664;-63.766;2023-07-31T13:08:32;22.10;42.30
59975;DHT22;62136;-35.664;-63.766;2023-07-31T13:10:59;22.60;41.50
59975;DHT22;62136;-35.664;-63.766;2023-07-31T13:13:26;22.60;41.00
59975;DHT22;62136;-35.664;-63.766;2023-07-31T13:15:53;22.60;41.20
59975;DHT22;62136;-35.664;-63.766;2023-07-31T13:18:20;22.50;41.30
59975;DHT22;62136;-35.664;-63.766;2023-07-31T13:20:47;22.40;41.50
59975;DHT22;62136;-35.664;-63.766;2023-07-31T13:23:14;22.20;41.80
59975;DHT22;62136;-35.664;-63.766;2023-07-31T13:25:42;22.00;42.60
59975;DHT22;62136;-35.664;-63.766;2023-07-31T13:28:12;21.80;43.30
59975;DHT22;62136;-35.664;-63.766;2023-07-31T13:30:39;21.70;46.70
59975;DHT22;62136;-35.664;-63.766;2023-07-31T13:33:06;21.50;46.50
59975;DHT22;62136;-35.664;-63.766;2023-07-31T13:35:34;21.40;48.50
59975;DHT22;62136;-35.664;-63.766;2023-07-31T13:38:01;21.40;45.30
59975;DHT22;62136;-35.664;-63.766;2023-07-31T13:40:28;21.60;45.10
59975;DHT22;62136;-35.664;-63.766;2023-07-31T13:42:55;22.00;44.50
59975;DHT22;62136;-35.664;-63.766;2023-07-31T13:45:23;22.40;43.90
59975;DHT22;62136;-35.664;-63.766;2023-07-31T13:47:51;22.70;43.10
59975;DHT22;62136;-35.664;-63.766;2023-07-31T13:50:18;22.80;43.00
59975;DHT22;62136;-35.664;-63.766;2023-07-31T13:52:47;22.70;43.00
59975;DHT22;62136;-35.664;-63.766;2023-07-31T13:55:16;22.50;43.20
59975;DHT22;62136;-35.664;-63.766;2023-07-31T13:57:43;22.40;43.60
59975;DHT22;62136;-35.664;-63.766;2023-07-31T14:00:11;22.20;44.00
59975;DHT22;62136;-35.664;-63.766;2023-07-31T14:02:38;22.00;44.30
59975;DHT22;62136;-35.664;-63.766;2023-07-31T14:05:06;21.90;45.20
59975;DHT22;62136;-35.664;-63.766;2023-07-31T14:07:35;21.70;46.00
59975;DHT22;62136;-35.664;-63.766;2023-07-31T14:10:03;21.50;48.00
59975;DHT22;62136;-35.664;-63.766;2023-07-31T14:14:59;21.40;47.50
59975;DHT22;62136;-35.664;-63.766;2023-07-31T14:17:27;21.70;47.40
59975;DHT22;62136;-35.664;-63.766;2023-07-31T14:19:54;22.10;47.00
59975;DHT22;62136;-35.664;-63.766;2023-07-31T14:22:29;22.60;46.50
59975;DHT22;62136;-35.664;-63.766;2023-07-31T14:24:56;22.80;45.90
59975;DHT22;62136;-35.664;-63.766;2023-07-31T14:27:23;22.80;45.90
59975;DHT22;62136;-35.664;-63.766;2023-07-31T14:29:50;22.80;46.00
59975;DHT22;62136;-35.664;-63.766;2023-07-31T14:32:17;22.70;46.30
59975;DHT22;62136;-35.664;-63.766;2023-07-31T14:34:44;22.60;47.50
59975;DHT22;62136;-35.664;-63.766;2023-07-31T14:37:11;22.50;48.50
59975;DHT22;62136;-35.664;-63.766;2023-07-31T14:39:38;22.40;49.20
59975;DHT22;62136;-35.664;-63.766;2023-07-31T14:42:06;22.20;52.40
59975;DHT22;62136;-35.664;-63.766;2023-07-31T14:44:35;22.10;54.20
59975;DHT22;62136;-35.664;-63.766;2023-07-31T14:47:03;22.00;55.80
59975;DHT22;62136;-35.664;-63.766;2023-07-31T14:49:33;21.90;56.10
59975;DHT22;62136;-35.664;-63.766;2023-07-31T14:52:00;21.80;58.40
59975;DHT22;62136;-35.664;-63.766;2023-07-31T14:54:28;21.70;60.60
59975;DHT22;62136;-35.664;-63.766;2023-07-31T14:56:55;21.60;61.40
59975;DHT22;62136;-35.664;-63.766;2023-07-31T14:59:22;21.60;61.90
59975;DHT22;62136;-35.664;-63.766;2023-07-31T15:01:49;21.50;61.80
59975;DHT22;62136;-35.664;-63.766;2023-07-31T15:04:16;21.40;62.80
59975;DHT22;62136;-35.664;-63.766;2023-07-31T15:06:43;21.40;62.60
59975;DHT22;62136;-35.664;-63.766;2023-07-31T15:09:10;21.40;61.20
59975;DHT22;62136;-35.664;-63.766;2023-07-31T15:11:37;21.60;58.70